sensor_id;sensor_type;location;lat;lon;timestamp;temperature;humidity
84114;DHT22;74483;48.846;2.358;2023-12-22T00:01:25;23.70;24.50
84114;DHT22;74483;48.846;2.358;2023-12-22T00:03:51;23.70;24.50
84114;DHT22;74483;48.846;2.358;2023-12-22T00:06:17;23.70;24.50
84114;DHT22;74483;48.846;2.358;2023-12-22T00:08:43;23.70;24.50
84114;DHT22;74483;48.846;2.358;2023-12-22T00:11:08;23.70;25.20
84114;DHT22;74483;48.846;2.358;2023-12-22T00:13:34;23.70;24.50
84114;DHT22;74483;48.846;2.358;2023-12-22T00:16:00;23.70;24.50
84114;DHT22;74483;48.846;2.358;2023-12-22T00:18:26;23.70;24.50
84114;DHT22;74483;48.846;2.358;2023-12-22T00:20:54;23.70;24.50
84114;DHT22;74483;48.846;2.358;2023-12-22T00:23:20;23.70;24.40
84114;DHT22;74483;48.846;2.358;2023-12-22T00:25:45;23.70;24.40
84114;DHT22;74483;48.846;2.358;2023-12-22T00:28:11;23.70;24.40
84114;DHT22;74483;48.846;2.358;2023-12-22T00:30:39;23.70;24.40
84114;DHT22;74483;48.846;2.358;2023-12-22T00:33:05;23.70;24.40
84114;DHT22;74483;48.846;2.358;2023-12-22T00:35:31;23.70;24.30
84114;DHT22;74483;48.846;2.358;2023-12-22T00:38:01;23.70;24.30
84114;DHT22;74483;48.846;2.358;2023-12-22T00:40:27;23.70;24.30
84114;DHT22;74483;48.846;2.358;2023-12-22T00:42:52;23.70;24.30
84114;DHT22;74483;48.846;2.358;2023-12-22T00:45:20;23.70;24.20
84114;DHT22;74483;48.846;2.358;2023-12-22T00:47:46;23.70;24.10
84114;DHT22;74483;48.846;2.358;2023-12-22T00:50:14;23.70;24.10
84114;DHT22;74483;48.846;2.358;2023-12-22T00:52:40;23.70;24.00
84114;DHT22;74483;48.846;2.358;2023-12-22T00:55:06;23.70;24.00
84114;DHT22;74483;48.846;2.358;2023-12-22T00:57:34;23.70;24.00
84114;DHT22;74483;48.846;2.358;2023-12-22T01:00:02;23.60;23.90
84114;DHT22;74483;48.846;2.358;2023-12-22T01:02:30;23.70;23.90
84114;DHT22;74483;48.846;2.358;2023-12-22T01:04:55;23.60;23.80
84114;DHT22;74483;48.846;2.358;2023-12-22T01:07:21;23.70;23.90
84114;DHT22;74483;48.846;2.358;2023-12-22T01:09:47;23.60;23.70
84114;DHT22;74483;48.846;2.358;2023-12-22T01:12:15;23.70;23.80
84114;DHT22;74483;48.846;2.358;2023-12-22T01:14:41;23.60;23.70
84114;DHT22;74483;48.846;2.358;2023-12-22T01:17:07;23.70;23.70
84114;DHT22;74483;48.846;2.358;2023-12-22T01:19:35;23.60;23.70
84114;DHT22;74483;48.846;2.358;2023-12-22T01:22:03;23.70;23.70
84114;DHT22;74483;48.846;2.358;2023-12-22T01:24:31;23.70;23.70
84114;DHT22;74483;48.846;2.358;2023-12-22T01:26:57;23.70;23.60
84114;DHT22;74483;48.846;2.358;2023-12-22T01:29:22;23.70;23.60
84114;DHT22;74483;48.846;2.358;2023-12-22T01:31:48;23.60;23.50
84114;DHT22;74483;48.846;2.358;2023-12-22T01:34:16;23.60;23.40
84114;DHT22;74483;48.846;2.358;2023-12-22T01:36:41;23.60;23.40
84114;DHT22;74483;48.846;2.358;2023-12-22T01:39:07;23.60;23.40
84114;DHT22;74483;48.846;2.358;2023-12-22T01:41:33;23.60;23.40
84114;DHT22;74483;48.846;2.358;2023-12-22T01:43:59;23.60;23.40
84114;DHT22;74483;48.846;2.358;2023-12-22T01:46:27;23.60;23.30
84114;DHT22;74483;48.846;2.358;2023-12-22T01:48:54;23.60;23.30
84114;DHT22;74483;48.846;2.358;2023-12-22T01:51:20;23.60;23.30
84114;DHT22;74483;48.846;2.358;2023-12-22T01:53:48;23.60;23.30
84114;DHT22;74483;48.846;2.358;2023-12-22T01:56:14;23.60;23.40
84114;DHT22;74483;48.846;2.358;2023-12-22T01:58:42;23.60;23.40
84114;DHT22;74483;48.846;2.358;2023-12-22T02:01:08;23.60;23.40
84114;DHT22;74483;48.846;2.358;2023-12-22T02:03:34;23.60;23.40
84114;DHT22;74483;48.846;2.358;2023-12-22T02:06:03;23.60;23.40
84114;DHT22;74483;48.846;2.358;2023-12-22T02:08:31;23.60;23.40
84114;DHT22;74483;48.846;2.358;2023-12-22T02:10:59;23.60;23.40
84114;DHT22;74483;48.846;2.358;2023-12-22T02:13:25;23.60;23.50
84114;DHT22;74483;48.846;2.358;2023-12-22T02:16:04;23.60;23.50
84114;DHT22;74483;48.846;2.358;2023-12-22T02:18:39;23.60;23.50
84114;DHT22;74483;48.846;2.358;2023-12-22T02:21:05;23.60;23.50
84114;DHT22;74483;48.846;2.358;2023-12-22T02:23:31;23.60;23.60
84114;DHT22;74483;48.846;2.358;2023-12-22T02:26:06;23.60;23.60
84114;DHT22;74483;48.846;2.358;2023-12-22T02:28:35;23.60;23.60
84114;DHT22;74483;48.846;2.358;2023-12-22T02:31:09;23.60;23.60
84114;DHT22;74483;48.846;2.358;2023-12-22T02:33:41;23.60;23.60
84114;DHT22;74483;48.846;2.358;2023-12-22T02:36:08;23.60;23.60
84114;DHT22;74483;48.846;2.358;2023-12-22T02:38:40;23.60;23.60
84114;DHT22;74483;48.846;2.358;2023-12-22T02:41:06;23.60;23.60
84114;DHT22;74483;48.846;2.358;2023-12-22T02:43:32;23.60;23.70
84114;DHT22;74483;48.846;2.358;2023-12-22T02:45:58;23.60;23.60
84114;DHT22;74483;48.846;2.358;2023-12-22T02:48:24;23.60;23.70
84114;DHT22;74483;48.846;2.358;2023-12-22T02:50:50;23.60;23.70
84114;DHT22;74483;48.846;2.358;2023-12-22T02:53:18;23.60;23.70
84114;DHT22;74483;48.846;2.358;2023-12-22T02:55:46;23.60;23.70
84114;DHT22;74483;48.846;2.358;2023-12-22T02:58:12;23.60;23.70
84114;DHT22;74483;48.846;2.358;2023-12-22T03:00:38;23.60;23.70
84114;DHT22;74483;48.846;2.358;2023-12-22T03:03:04;23.60;23.70
84114;DHT22;74483;48.846;2.358;2023-12-22T03:05:32;23.60;23.70
84114;DHT22;74483;48.846;2.358;2023-12-22T03:07:58;23.60;23.70
84114;DHT22;74483;48.846;2.358;2023-12-22T03:10:24;23.60;23.70
84114;DHT22;74483;48.846;2.358;2023-12-22T03:12:50;23.60;23.70
84114;DHT22;74483;48.846;2.358;2023-12-22T03:15:15;23.60;23.70
84114;DHT22;74483;48.846;2.358;2023-12-22T03:17:41;23.60;23.70
84114;DHT22;74483;48.846;2.358;2023-12-22T03:20:08;23.60;24.30
84114;DHT22;74483;48.846;2.358;2023-12-22T03:22:33;23.60;23.60
84114;DHT22;74483;48.846;2.358;2023-12-22T03:25:01;23.60;23.70
84114;DHT22;74483;48.846;2.358;2023-12-22T03:27:29;23.60;23.60
84114;DHT22;74483;48.846;2.358;2023-12-22T03:29:57;23.60;23.60
84114;DHT22;74483;48.846;2.358;2023-12-22T03:32:23;23.60;23.60
84114;DHT22;74483;48.846;2.358;2023-12-22T03:34:49;23.60;23.60
84114;DHT22;74483;48.846;2.358;2023-12-22T03:37:14;23.60;23.60
84114;DHT22;74483;48.846;2.358;2023-12-22T03:39:40;23.60;23.60
84114;DHT22;74483;48.846;2.358;2023-12-22T03:42:06;23.60;23.60
84114;DHT22;74483;48.846;2.358;2023-12-22T03:44:36;23.60;23.60
84114;DHT22;74483;48.846;2.358;2023-12-22T03:47:01;23.60;23.50
84114;DHT22;74483;48.846;2.358;2023-12-22T03:49:32;23.60;23.60
84114;DHT22;74483;48.846;2.358;2023-12-22T03:51:58;23.60;23.50
84114;DHT22;74483;48.846;2.358;2023-12-22T03:54:24;23.60;23.50
84114;DHT22;74483;48.846;2.358;2023-12-22T03:56:53;23.60;23.50
84114;DHT22;74483;48.846;2.358;2023-12-22T03:59:24;23.70;23.60
84114;DHT22;74483;48.846;2.358;2023-12-22T04:01:51;23.60;23.50
84114;DHT22;74483;48.846;2.358;2023-12-22T04:04:18;23.60;23.50
84114;DHT22;74483;48.846;2.358;2023-12-22T04:06:46;23.60;23.50
84114;DHT22;74483;48.846;2.358;2023-12-22T04:09:12;23.60;23.50
84114;DHT22;74483;48.846;2.358;2023-12-22T04:11:38;23.60;23.50
84114;DHT22;74483;48.846;2.358;2023-12-22T04:14:05;23.60;23.50
84114;DHT22;74483;48.846;2.358;2023-12-22T04:16:36;23.60;23.50
84114;DHT22;74483;48.846;2.358;2023-12-22T04:19:02;23.60;23.50
84114;DHT22;74483;48.846;2.358;2023-12-22T04:21:28;23.60;23.50
84114;DHT22;74483;48.846;2.358;2023-12-22T04:23:53;23.60;24.10
84114;DHT22;74483;48.846;2.358;2023-12-22T04:26:24;23.60;23.50
84114;DHT22;74483;48.846;2.358;2023-12-22T04:28:49;23.60;23.50
84114;DHT22;74483;48.846;2.358;2023-12-22T04:31:15;23.60;23.50
84114;DHT22;74483;48.846;2.358;2023-12-22T04:33:46;23.70;23.60
84114;DHT22;74483;48.846;2.358;2023-12-22T04:36:11;23.60;23.50
84114;DHT22;74483;48.846;2.358;2023-12-22T04:38:39;23.60;23.50
84114;DHT22;74483;48.846;2.358;2023-12-22T04:41:08;23.60;23.60
84114;DHT22;74483;48.846;2.358;2023-12-22T04:43:36;23.60;23.60
84114;DHT22;74483;48.846;2.358;2023-12-22T04:46:02;23.60;23.70
84114;DHT22;74483;48.846;2.358;2023-12-22T04:48:28;23.60;23.70
84114;DHT22;74483;48.846;2.358;2023-12-22T04:50:53;23.60;23.80
84114;DHT22;74483;48.846;2.358;2023-12-22T04:53:19;23.60;23.80
84114;DHT22;74483;48.846;2.358;2023-12-22T04:55:45;23.60;23.90
84114;DHT22;74483;48.846;2.358;2023-12-22T04:58:14;23.60;23.90
84114;DHT22;74483;48.846;2.358;2023-12-22T05:00:39;23.60;24.00
84114;DHT22;74483;48.846;2.358;2023-12-22T05:03:05;23.60;24.10
84114;DHT22;74483;48.846;2.358;2023-12-22T05:05:31;23.60;24.10
84114;DHT22;74483;48.846;2.358;2023-12-22T05:07:56;23.60;24.20
84114;DHT22;74483;48.846;2.358;2023-12-22T05:10:25;23.60;24.20
84114;DHT22;74483;48.846;2.358;2023-12-22T05:12:53;23.60;24.30
84114;DHT22;74483;48.846;2.358;2023-12-22T05:15:27;23.60;24.30
84114;DHT22;74483;48.846;2.358;2023-12-22T05:17:52;23.60;24.40
84114;DHT22;74483;48.846;2.358;2023-12-22T05:20:18;23.60;24.40
84114;DHT22;74483;48.846;2.358;2023-12-22T05:22:50;23.60;24.40
84114;DHT22;74483;48.846;2.358;2023-12-22T05:25:18;23.60;24.50
84114;DHT22;74483;48.846;2.358;2023-12-22T05:27:49;23.60;24.50
84114;DHT22;74483;48.846;2.358;2023-12-22T05:30:17;23.60;24.50
84114;DHT22;74483;48.846;2.358;2023-12-22T05:32:44;23.60;24.60
84114;DHT22;74483;48.846;2.358;2023-12-22T05:35:12;23.60;24.60
84114;DHT22;74483;48.846;2.358;2023-12-22T05:37:38;23.60;24.60
84114;DHT22;74483;48.846;2.358;2023-12-22T05:40:10;23.60;24.60
84114;DHT22;74483;48.846;2.358;2023-12-22T05:42:37;23.60;24.70
84114;DHT22;74483;48.846;2.358;2023-12-22T05:45:08;23.60;24.70
84114;DHT22;74483;48.846;2.358;2023-12-22T05:47:36;23.60;24.80
84114;DHT22;74483;48.846;2.358;2023-12-22T05:50:03;23.60;24.80
84114;DHT22;74483;48.846;2.358;2023-12-22T05:52:31;23.60;24.80
84114;DHT22;74483;48.846;2.358;2023-12-22T05:54:56;23.60;24.80
84114;DHT22;74483;48.846;2.358;2023-12-22T05:57:24;23.60;24.90
84114;DHT22;74483;48.846;2.358;2023-12-22T05:59:50;23.60;24.90
84114;DHT22;74483;48.846;2.358;2023-12-22T06:02:16;23.60;24.90
84114;DHT22;74483;48.846;2.358;2023-12-22T06:04:41;23.60;24.90
84114;DHT22;74483;48.846;2.358;2023-12-22T06:07:10;23.60;24.90
84114;DHT22;74483;48.846;2.358;2023-12-22T06:09:36;23.60;24.90
84114;DHT22;74483;48.846;2.358;2023-12-22T06:12:02;23.60;24.90
84114;DHT22;74483;48.846;2.358;2023-12-22T06:14:28;23.60;24.90
84114;DHT22;74483;48.846;2.358;2023-12-22T06:16:54;23.60;25.00
84114;DHT22;74483;48.846;2.358;2023-12-22T06:19:22;23.60;25.00
84114;DHT22;74483;48.846;2.358;2023-12-22T06:21:52;23.60;25.00
84114;DHT22;74483;48.846;2.358;2023-12-22T06:24:20;23.60;25.70
84114;DHT22;74483;48.846;2.358;2023-12-22T06:26:47;23.60;25.70
84114;DHT22;74483;48.846;2.358;2023-12-22T06:29:15;23.60;25.00
84114;DHT22;74483;48.846;2.358;2023-12-22T06:31:44;23.60;25.70
84114;DHT22;74483;48.846;2.358;2023-12-22T06:34:13;23.60;25.00
84114;DHT22;74483;48.846;2.358;2023-12-22T06:36:41;23.60;25.10
84114;DHT22;74483;48.846;2.358;2023-12-22T06:39:08;23.60;25.10
84114;DHT22;74483;48.846;2.358;2023-12-22T06:41:36;23.60;25.20
84114;DHT22;74483;48.846;2.358;2023-12-22T06:44:04;23.60;25.20
84114;DHT22;74483;48.846;2.358;2023-12-22T06:46:30;23.60;25.20
84114;DHT22;74483;48.846;2.358;2023-12-22T06:48:57;23.60;25.30
84114;DHT22;74483;48.846;2.358;2023-12-22T06:51:27;23.60;25.20
84114;DHT22;74483;48.846;2.358;2023-12-22T06:53:56;23.60;25.30
84114;DHT22;74483;48.846;2.358;2023-12-22T06:56:26;23.60;25.30
84114;DHT22;74483;48.846;2.358;2023-12-22T06:58:53;23.60;25.30
84114;DHT22;74483;48.846;2.358;2023-12-22T07:01:24;23.60;25.40
84114;DHT22;74483;48.846;2.358;2023-12-22T07:03:51;23.60;25.40
84114;DHT22;74483;48.846;2.358;2023-12-22T07:06:18;23.60;25.40
84114;DHT22;74483;48.846;2.358;2023-12-22T07:08:57;23.60;25.40
84114;DHT22;74483;48.846;2.358;2023-12-22T07:11:25;23.60;25.40
84114;DHT22;74483;48.846;2.358;2023-12-22T07:13:50;23.60;25.40
84114;DHT22;74483;48.846;2.358;2023-12-22T07:16:16;23.60;25.50
84114;DHT22;74483;48.846;2.358;2023-12-22T07:18:45;23.60;26.10
84114;DHT22;74483;48.846;2.358;2023-12-22T07:21:18;23.60;25.50
84114;DHT22;74483;48.846;2.358;2023-12-22T07:23:46;23.60;25.50
84114;DHT22;74483;48.846;2.358;2023-12-22T07:26:12;23.50;25.50
84114;DHT22;74483;48.846;2.358;2023-12-22T07:28:46;23.60;25.50
84114;DHT22;74483;48.846;2.358;2023-12-22T07:31:12;23.60;25.50
84114;DHT22;74483;48.846;2.358;2023-12-22T07:33:42;23.60;25.50
84114;DHT22;74483;48.846;2.358;2023-12-22T07:36:11;23.60;25.60
84114;DHT22;74483;48.846;2.358;2023-12-22T07:38:38;23.60;25.60
84114;DHT22;74483;48.846;2.358;2023-12-22T07:41:14;23.60;25.60
84114;DHT22;74483;48.846;2.358;2023-12-22T07:43:39;23.50;25.60
84114;DHT22;74483;48.846;2.358;2023-12-22T07:46:07;23.50;25.70
84114;DHT22;74483;48.846;2.358;2023-12-22T07:48:37;23.60;25.70
84114;DHT22;74483;48.846;2.358;2023-12-22T07:51:05;23.60;25.70
84114;DHT22;74483;48.846;2.358;2023-12-22T07:53:33;23.60;25.70
84114;DHT22;74483;48.846;2.358;2023-12-22T07:55:59;23.60;25.70
84114;DHT22;74483;48.846;2.358;2023-12-22T07:58:24;23.60;25.70
84114;DHT22;74483;48.846;2.358;2023-12-22T08:00:53;23.60;25.70
84114;DHT22;74483;48.846;2.358;2023-12-22T08:03:21;23.60;25.70
84114;DHT22;74483;48.846;2.358;2023-12-22T08:05:47;23.60;25.80
84114;DHT22;74483;48.846;2.358;2023-12-22T08:08:15;23.60;25.80
84114;DHT22;74483;48.846;2.358;2023-12-22T08:10:44;23.60;25.70
84114;DHT22;74483;48.846;2.358;2023-12-22T08:13:13;23.60;25.80
84114;DHT22;74483;48.846;2.358;2023-12-22T08:15:40;23.60;25.70
84114;DHT22;74483;48.846;2.358;2023-12-22T08:18:11;23.60;25.80
84114;DHT22;74483;48.846;2.358;2023-12-22T08:20:37;23.60;25.80
84114;DHT22;74483;48.846;2.358;2023-12-22T08:23:03;23.60;25.80
84114;DHT22;74483;48.846;2.358;2023-12-22T08:25:28;23.60;25.80
84114;DHT22;74483;48.846;2.358;2023-12-22T08:27:54;23.60;25.90
84114;DHT22;74483;48.846;2.358;2023-12-22T08:30:20;23.60;25.80
84114;DHT22;74483;48.846;2.358;2023-12-22T08:32:46;23.60;25.90
84114;DHT22;74483;48.846;2.358;2023-12-22T08:35:15;23.60;25.90
84114;DHT22;74483;48.846;2.358;2023-12-22T08:37:42;23.60;25.80
84114;DHT22;74483;48.846;2.358;2023-12-22T08:40:08;23.60;25.90
84114;DHT22;74483;48.846;2.358;2023-12-22T08:42:33;23.60;25.90
84114;DHT22;74483;48.846;2.358;2023-12-22T08:44:59;23.60;25.90
84114;DHT22;74483;48.846;2.358;2023-12-22T08:47:28;23.70;26.00
84114;DHT22;74483;48.846;2.358;2023-12-22T08:49:53;23.70;26.00
84114;DHT22;74483;48.846;2.358;2023-12-22T08:52:19;23.70;26.00
84114;DHT22;74483;48.846;2.358;2023-12-22T08:54:48;23.60;25.90
84114;DHT22;74483;48.846;2.358;2023-12-22T08:57:14;23.70;26.70
84114;DHT22;74483;48.846;2.358;2023-12-22T08:59:49;23.60;26.00
84114;DHT22;74483;48.846;2.358;2023-12-22T09:02:15;23.70;26.10
84114;DHT22;74483;48.846;2.358;2023-12-22T09:04:41;23.70;26.10
84114;DHT22;74483;48.846;2.358;2023-12-22T09:07:09;23.70;26.00
84114;DHT22;74483;48.846;2.358;2023-12-22T09:09:35;23.70;26.00
84114;DHT22;74483;48.846;2.358;2023-12-22T09:12:04;23.70;26.10
84114;DHT22;74483;48.846;2.358;2023-12-22T09:14:35;23.70;26.10
84114;DHT22;74483;48.846;2.358;2023-12-22T09:17:03;23.70;26.00
84114;DHT22;74483;48.846;2.358;2023-12-22T09:19:32;23.70;26.70
84114;DHT22;74483;48.846;2.358;2023-12-22T09:22:07;23.70;26.00
84114;DHT22;74483;48.846;2.358;2023-12-22T09:24:40;23.70;26.10
84114;DHT22;74483;48.846;2.358;2023-12-22T09:27:05;23.80;26.00
84114;DHT22;74483;48.846;2.358;2023-12-22T09:29:37;23.80;25.90
84114;DHT22;74483;48.846;2.358;2023-12-22T09:32:03;23.80;25.80
84114;DHT22;74483;48.846;2.358;2023-12-22T09:34:31;23.80;25.80
84114;DHT22;74483;48.846;2.358;2023-12-22T09:37:02;23.80;25.80
84114;DHT22;74483;48.846;2.358;2023-12-22T09:39:30;23.80;25.80
84114;DHT22;74483;48.846;2.358;2023-12-22T09:41:56;23.80;25.80
84114;DHT22;74483;48.846;2.358;2023-12-22T09:44:22;23.80;25.70
84114;DHT22;74483;48.846;2.358;2023-12-22T09:46:53;23.80;25.70
84114;DHT22;74483;48.846;2.358;2023-12-22T09:49:19;23.80;25.70
84114;DHT22;74483;48.846;2.358;2023-12-22T09:51:53;23.80;25.70
84114;DHT22;74483;48.846;2.358;2023-12-22T09:54:24;23.80;25.70
84114;DHT22;74483;48.846;2.358;2023-12-22T09:56:52;23.80;25.70
84114;DHT22;74483;48.846;2.358;2023-12-22T09:59:19;23.80;25.70
84114;DHT22;74483;48.846;2.358;2023-12-22T10:01:47;23.90;25.70
84114;DHT22;74483;48.846;2.358;2023-12-22T10:04:22;23.90;25.70
84114;DHT22;74483;48.846;2.358;2023-12-22T10:06:53;23.90;25.70
84114;DHT22;74483;48.846;2.358;2023-12-22T10:09:23;23.90;25.60
84114;DHT22;74483;48.846;2.358;2023-12-22T10:11:52;23.90;25.60
84114;DHT22;74483;48.846;2.358;2023-12-22T10:14:20;23.90;25.60
84114;DHT22;74483;48.846;2.358;2023-12-22T10:16:51;23.90;25.70
84114;DHT22;74483;48.846;2.358;2023-12-22T10:19:17;23.90;25.60
84114;DHT22;74483;48.846;2.358;2023-12-22T10:21:43;23.90;25.70
84114;DHT22;74483;48.846;2.358;2023-12-22T10:24:36;23.90;25.60
84114;DHT22;74483;48.846;2.358;2023-12-22T10:27:05;23.90;25.50
84114;DHT22;74483;48.846;2.358;2023-12-22T10:29:33;23.90;25.60
84114;DHT22;74483;48.846;2.358;2023-12-22T10:32:04;23.90;25.50
84114;DHT22;74483;48.846;2.358;2023-12-22T10:34:33;24.00;25.50
84114;DHT22;74483;48.846;2.358;2023-12-22T10:37:00;24.00;25.40
84114;DHT22;74483;48.846;2.358;2023-12-22T10:39:31;24.00;25.40
84114;DHT22;74483;48.846;2.358;2023-12-22T10:41:57;24.00;25.40
84114;DHT22;74483;48.846;2.358;2023-12-22T10:44:27;24.00;25.30
84114;DHT22;74483;48.846;2.358;2023-12-22T10:46:56;24.00;25.30
84114;DHT22;74483;48.846;2.358;2023-12-22T10:49:23;24.00;25.30
84114;DHT22;74483;48.846;2.358;2023-12-22T10:51:52;24.00;25.30
84114;DHT22;74483;48.846;2.358;2023-12-22T10:54:19;24.00;25.30
84114;DHT22;74483;48.846;2.358;2023-12-22T10:56:44;24.00;25.30
84114;DHT22;74483;48.846;2.358;2023-12-22T10:59:12;24.00;25.30
84114;DHT22;74483;48.846;2.358;2023-12-22T11:01:45;24.00;25.30
84114;DHT22;74483;48.846;2.358;2023-12-22T11:04:17;24.00;25.30
84114;DHT22;74483;48.846;2.358;2023-12-22T11:06:47;24.00;25.30
84114;DHT22;74483;48.846;2.358;2023-12-22T11:09:16;24.00;25.30
84114;DHT22;74483;48.846;2.358;2023-12-22T11:11:43;24.00;25.40
84114;DHT22;74483;48.846;2.358;2023-12-22T11:14:12;24.00;25.40
84114;DHT22;74483;48.846;2.358;2023-12-22T11:16:41;24.00;25.40
84114;DHT22;74483;48.846;2.358;2023-12-22T11:19:13;24.00;25.50
84114;DHT22;74483;48.846;2.358;2023-12-22T11:21:40;24.00;25.50
84114;DHT22;74483;48.846;2.358;2023-12-22T11:24:07;24.00;25.50
84114;DHT22;74483;48.846;2.358;2023-12-22T11:26:33;24.00;25.60
84114;DHT22;74483;48.846;2.358;2023-12-22T11:29:02;24.00;25.50
84114;DHT22;74483;48.846;2.358;2023-12-22T11:31:32;24.00;25.60
84114;DHT22;74483;48.846;2.358;2023-12-22T11:34:01;24.00;25.60
84114;DHT22;74483;48.846;2.358;2023-12-22T11:36:38;23.90;25.70
84114;DHT22;74483;48.846;2.358;2023-12-22T11:39:04;24.00;25.60
84114;DHT22;74483;48.846;2.358;2023-12-22T11:41:33;24.00;25.70
84114;DHT22;74483;48.846;2.358;2023-12-22T11:44:01;24.00;25.80
84114;DHT22;74483;48.846;2.358;2023-12-22T11:46:29;23.90;25.80
84114;DHT22;74483;48.846;2.358;2023-12-22T11:48:56;23.90;25.80
84114;DHT22;74483;48.846;2.358;2023-12-22T11:51:31;23.90;25.80
84114;DHT22;74483;48.846;2.358;2023-12-22T11:54:00;24.00;25.80
84114;DHT22;74483;48.846;2.358;2023-12-22T11:56:25;24.00;25.80
84114;DHT22;74483;48.846;2.358;2023-12-22T11:58:54;24.00;25.80
84114;DHT22;74483;48.846;2.358;2023-12-22T12:01:24;24.00;25.80
84114;DHT22;74483;48.846;2.358;2023-12-22T12:03:56;24.00;25.80
84114;DHT22;74483;48.846;2.358;2023-12-22T12:08:58;24.00;25.80
84114;DHT22;74483;48.846;2.358;2023-12-22T12:12:08;24.00;25.80
84114;DHT22;74483;48.846;2.358;2023-12-22T12:14:17;24.00;25.80
84114;DHT22;74483;48.846;2.358;2023-12-22T12:16:47;24.00;25.80
84114;DHT22;74483;48.846;2.358;2023-12-22T12:19:15;24.00;25.80
84114;DHT22;74483;48.846;2.358;2023-12-22T12:21:40;24.00;25.80
84114;DHT22;74483;48.846;2.358;2023-12-22T12:24:09;24.00;25.80
84114;DHT22;74483;48.846;2.358;2023-12-22T12:26:35;24.00;25.80
84114;DHT22;74483;48.846;2.358;2023-12-22T12:29:02;24.00;25.70
84114;DHT22;74483;48.846;2.358;2023-12-22T12:31:36;24.00;25.80
84114;DHT22;74483;48.846;2.358;2023-12-22T12:34:07;24.00;25.70
84114;DHT22;74483;48.846;2.358;2023-12-22T12:36:39;24.00;25.80
84114;DHT22;74483;48.846;2.358;2023-12-22T12:39:17;24.00;25.70
84114;DHT22;74483;48.846;2.358;2023-12-22T12:41:48;24.00;25.70
84114;DHT22;74483;48.846;2.358;2023-12-22T12:44:17;23.90;25.60
84114;DHT22;74483;48.846;2.358;2023-12-22T12:46:43;24.00;25.60
84114;DHT22;74483;48.846;2.358;2023-12-22T12:49:11;23.90;25.60
84114;DHT22;74483;48.846;2.358;2023-12-22T12:51:38;23.90;25.60
84114;DHT22;74483;48.846;2.358;2023-12-22T12:54:06;23.90;25.60
84114;DHT22;74483;48.846;2.358;2023-12-22T12:56:42;23.90;25.50
84114;DHT22;74483;48.846;2.358;2023-12-22T12:59:17;24.00;25.50
84114;DHT22;74483;48.846;2.358;2023-12-22T13:01:49;24.00;25.40
84114;DHT22;74483;48.846;2.358;2023-12-22T13:04:15;24.00;25.40
84114;DHT22;74483;48.846;2.358;2023-12-22T13:07:04;24.00;25.40
84114;DHT22;74483;48.846;2.358;2023-12-22T13:09:37;24.00;25.20
84114;DHT22;74483;48.846;2.358;2023-12-22T13:12:06;24.00;25.30
84114;DHT22;74483;48.846;2.358;2023-12-22T13:14:35;24.00;25.20
84114;DHT22;74483;48.846;2.358;2023-12-22T13:17:04;24.00;25.20
84114;DHT22;74483;48.846;2.358;2023-12-22T13:19:30;24.00;25.10
84114;DHT22;74483;48.846;2.358;2023-12-22T13:22:01;23.90;25.10
84114;DHT22;74483;48.846;2.358;2023-12-22T13:24:29;24.00;25.00
84114;DHT22;74483;48.846;2.358;2023-12-22T13:27:04;24.00;24.90
84114;DHT22;74483;48.846;2.358;2023-12-22T13:29:45;24.00;24.90
84114;DHT22;74483;48.846;2.358;2023-12-22T13:32:19;24.00;24.80
84114;DHT22;74483;48.846;2.358;2023-12-22T13:34:52;24.00;24.70
84114;DHT22;74483;48.846;2.358;2023-12-22T13:37:19;24.00;24.80
84114;DHT22;74483;48.846;2.358;2023-12-22T13:39:47;24.00;24.80
84114;DHT22;74483;48.846;2.358;2023-12-22T13:42:16;24.00;24.70
84114;DHT22;74483;48.846;2.358;2023-12-22T13:44:43;24.00;24.60
84114;DHT22;74483;48.846;2.358;2023-12-22T13:47:12;24.00;24.60
84114;DHT22;74483;48.846;2.358;2023-12-22T13:49:38;24.00;24.50
84114;DHT22;74483;48.846;2.358;2023-12-22T13:52:06;24.00;24.50
84114;DHT22;74483;48.846;2.358;2023-12-22T13:54:34;24.00;24.40
84114;DHT22;74483;48.846;2.358;2023-12-22T13:57:03;24.00;24.30
84114;DHT22;74483;48.846;2.358;2023-12-22T13:59:32;24.00;24.40
84114;DHT22;74483;48.846;2.358;2023-12-22T14:02:01;24.00;24.30
84114;DHT22;74483;48.846;2.358;2023-12-22T14:04:29;24.00;24.30
84114;DHT22;74483;48.846;2.358;2023-12-22T14:06:59;23.90;24.20
84114;DHT22;74483;48.846;2.358;2023-12-22T14:09:27;24.00;24.20
84114;DHT22;74483;48.846;2.358;2023-12-22T14:12:00;24.00;24.10
84114;DHT22;74483;48.846;2.358;2023-12-22T14:14:25;24.00;24.10
84114;DHT22;74483;48.846;2.358;2023-12-22T14:16:56;24.00;24.10
84114;DHT22;74483;48.846;2.358;2023-12-22T14:19:22;23.90;24.10
84114;DHT22;74483;48.846;2.358;2023-12-22T14:21:47;23.90;24.10
84114;DHT22;74483;48.846;2.358;2023-12-22T14:24:13;23.90;24.00
84114;DHT22;74483;48.846;2.358;2023-12-22T14:26:55;23.90;24.00
84114;DHT22;74483;48.846;2.358;2023-12-22T14:29:22;24.00;23.90
84114;DHT22;74483;48.846;2.358;2023-12-22T14:31:51;23.90;24.00
84114;DHT22;74483;48.846;2.358;2023-12-22T14:34:19;23.90;23.90
84114;DHT22;74483;48.846;2.358;2023-12-22T14:36:47;23.90;23.90
84114;DHT22;74483;48.846;2.358;2023-12-22T14:39:18;23.90;23.90
84114;DHT22;74483;48.846;2.358;2023-12-22T14:41:44;23.90;23.90
84114;DHT22;74483;48.846;2.358;2023-12-22T14:44:14;23.90;23.90
84114;DHT22;74483;48.846;2.358;2023-12-22T14:46:41;23.90;23.80
84114;DHT22;74483;48.846;2.358;2023-12-22T14:49:07;23.90;23.70
84114;DHT22;74483;48.846;2.358;2023-12-22T14:51:39;23.90;23.80
84114;DHT22;74483;48.846;2.358;2023-12-22T14:54:08;23.90;23.70
84114;DHT22;74483;48.846;2.358;2023-12-22T14:56:41;23.90;23.70
84114;DHT22;74483;48.846;2.358;2023-12-22T14:59:12;23.90;23.80
84114;DHT22;74483;48.846;2.358;2023-12-22T15:01:47;23.90;23.80
84114;DHT22;74483;48.846;2.358;2023-12-22T15:04:15;23.90;23.80
84114;DHT22;74483;48.846;2.358;2023-12-22T15:06:41;23.90;23.80
84114;DHT22;74483;48.846;2.358;2023-12-22T15:09:10;23.90;23.70
84114;DHT22;74483;48.846;2.358;2023-12-22T15:11:45;23.90;24.40
84114;DHT22;74483;48.846;2.358;2023-12-22T15:14:12;23.90;23.70
84114;DHT22;74483;48.846;2.358;2023-12-22T15:16:43;23.80;23.70
84114;DHT22;74483;48.846;2.358;2023-12-22T15:19:17;23.80;23.70
84114;DHT22;74483;48.846;2.358;2023-12-22T15:21:46;23.80;23.70
84114;DHT22;74483;48.846;2.358;2023-12-22T15:24:15;23.80;23.70
84114;DHT22;74483;48.846;2.358;2023-12-22T15:26:41;23.80;23.60
84114;DHT22;74483;48.846;2.358;2023-12-22T15:29:11;23.80;23.70
84114;DHT22;74483;48.846;2.358;2023-12-22T15:31:39;23.80;23.70
84114;DHT22;74483;48.846;2.358;2023-12-22T15:34:05;23.80;23.60
84114;DHT22;74483;48.846;2.358;2023-12-22T15:36:31;23.80;23.60
84114;DHT22;74483;48.846;2.358;2023-12-22T15:38:58;23.80;23.70